sensor_id;sensor_type;location;lat;lon;timestamp;P1;durP1;ratioP1;P2;durP2;ratioP2
13421;SDS011;6782;55.904;13.396;2022-10-30T00:01:50;14.03;;;6.57;;
13421;SDS011;6782;55.904;13.396;2022-10-30T00:04:37;12.50;;;7.17;;
13421;SDS011;6782;55.904;13.396;2022-10-30T00:07:24;15.77;;;6.97;;
13421;SDS011;6782;55.904;13.396;2022-10-30T00:10:13;14.70;;;6.87;;
13421;SDS011;6782;55.904;13.396;2022-10-30T00:13:00;14.77;;;7.20;;
13421;SDS011;6782;55.904;13.396;2022-10-30T00:15:48;9.73;;;6.57;;
13421;SDS011;6782;55.904;13.396;2022-10-30T00:18:37;10.13;;;6.70;;
13421;SDS011;6782;55.904;13.396;2022-10-30T00:21:26;16.30;;;7.90;;
13421;SDS011;6782;55.904;13.396;2022-10-30T00:24:13;12.43;;;8.37;;
13421;SDS011;6782;55.904;13.396;2022-10-30T00:27:01;16.03;;;8.70;;
13421;SDS011;6782;55.904;13.396;2022-10-30T00:29:48;14.93;;;8.60;;
13421;SDS011;6782;55.904;13.396;2022-10-30T00:32:35;11.30;;;8.93;;
13421;SDS011;6782;55.904;13.396;2022-10-30T00:35:23;12.63;;;8.63;;
13421;SDS011;6782;55.904;13.396;2022-10-30T00:38:10;14.87;;;7.87;;
13421;SDS011;6782;55.904;13.396;2022-10-30T00:40:57;15.20;;;9.30;;
13421;SDS011;6782;55.904;13.396;2022-10-30T00:43:46;13.90;;;9.37;;
13421;SDS011;6782;55.904;13.396;2022-10-30T00:46:34;18.63;;;9.87;;
13421;SDS011;6782;55.904;13.396;2022-10-30T00:49:25;17.43;;;9.93;;
13421;SDS011;6782;55.904;13.396;2022-10-30T00:52:12;15.60;;;10.13;;
13421;SDS011;6782;55.904;13.396;2022-10-30T00:55:00;16.63;;;11.17;;
13421;SDS011;6782;55.904;13.396;2022-10-30T00:57:53;17.30;;;11.10;;
13421;SDS011;6782;55.904;13.396;2022-10-30T01:00:44;19.87;;;12.33;;
13421;SDS011;6782;55.904;13.396;2022-10-30T01:03:34;13.77;;;10.77;;
13421;SDS011;6782;55.904;13.396;2022-10-30T01:06:23;20.17;;;11.63;;
13421;SDS011;6782;55.904;13.396;2022-10-30T01:09:11;19.33;;;12.43;;
13421;SDS011;6782;55.904;13.396;2022-10-30T01:11:59;16.70;;;10.63;;
13421;SDS011;6782;55.904;13.396;2022-10-30T01:14:48;16.93;;;11.73;;
13421;SDS011;6782;55.904;13.396;2022-10-30T01:17:45;23.47;;;12.80;;
13421;SDS011;6782;55.904;13.396;2022-10-30T01:20:48;22.57;;;13.47;;
13421;SDS011;6782;55.904;13.396;2022-10-30T01:23:49;22.03;;;14.23;;
13421;SDS011;6782;55.904;13.396;2022-10-30T01:26:48;19.73;;;14.03;;
13421;SDS011;6782;55.904;13.396;2022-10-30T01:29:44;23.33;;;14.07;;
13421;SDS011;6782;55.904;13.396;2022-10-30T01:32:47;21.07;;;13.90;;
13421;SDS011;6782;55.904;13.396;2022-10-30T01:35:45;23.47;;;14.57;;
13421;SDS011;6782;55.904;13.396;2022-10-30T01:38:38;18.63;;;13.17;;
13421;SDS011;6782;55.904;13.396;2022-10-30T01:41:30;19.30;;;13.00;;
13421;SDS011;6782;55.904;13.396;2022-10-30T01:44:17;19.30;;;13.13;;
13421;SDS011;6782;55.904;13.396;2022-10-30T01:47:12;20.60;;;13.67;;
13421;SDS011;6782;55.904;13.396;2022-10-30T01:50:12;24.93;;;13.80;;
13421;SDS011;6782;55.904;13.396;2022-10-30T01:53:08;22.77;;;14.67;;
13421;SDS011;6782;55.904;13.396;2022-10-30T01:56:12;21.73;;;15.80;;
13421;SDS011;6782;55.904;13.396;2022-10-30T01:59:06;29.03;;;15.93;;
13421;SDS011;6782;55.904;13.396;2022-10-30T02:01:59;20.03;;;15.10;;
13421;SDS011;6782;55.904;13.396;2022-10-30T02:04:46;19.43;;;13.30;;
13421;SDS011;6782;55.904;13.396;2022-10-30T02:07:35;22.10;;;15.33;;
13421;SDS011;6782;55.904;13.396;2022-10-30T02:10:23;24.70;;;15.90;;
13421;SDS011;6782;55.904;13.396;2022-10-30T02:13:11;22.67;;;15.90;;
13421;SDS011;6782;55.904;13.396;2022-10-30T02:15:58;23.97;;;14.73;;
13421;SDS011;6782;55.904;13.396;2022-10-30T02:18:46;19.37;;;14.43;;
13421;SDS011;6782;55.904;13.396;2022-10-30T02:21:34;20.97;;;14.43;;
13421;SDS011;6782;55.904;13.396;2022-10-30T02:24:21;21.20;;;14.20;;
13421;SDS011;6782;55.904;13.396;2022-10-30T02:27:08;19.93;;;13.47;;
13421;SDS011;6782;55.904;13.396;2022-10-30T02:29:55;18.80;;;13.40;;
13421;SDS011;6782;55.904;13.396;2022-10-30T02:32:44;22.40;;;14.13;;
13421;SDS011;6782;55.904;13.396;2022-10-30T02:35:31;23.10;;;13.43;;
13421;SDS011;6782;55.904;13.396;2022-10-30T02:38:21;18.97;;;13.20;;
13421;SDS011;6782;55.904;13.396;2022-10-30T02:41:08;21.53;;;14.43;;
13421;SDS011;6782;55.904;13.396;2022-10-30T02:43:56;19.87;;;13.47;;
13421;SDS011;6782;55.904;13.396;2022-10-30T02:46:43;23.20;;;13.20;;
13421;SDS011;6782;55.904;13.396;2022-10-30T02:49:30;21.23;;;12.23;;
13421;SDS011;6782;55.904;13.396;2022-10-30T02:52:17;23.23;;;13.33;;
13421;SDS011;6782;55.904;13.396;2022-10-30T02:55:06;16.60;;;12.83;;
13421;SDS011;6782;55.904;13.396;2022-10-30T02:57:53;18.90;;;12.70;;
13421;SDS011;6782;55.904;13.396;2022-10-30T03:00:40;17.30;;;11.70;;
13421;SDS011;6782;55.904;13.396;2022-10-30T03:03:27;18.87;;;12.60;;
13421;SDS011;6782;55.904;13.396;2022-10-30T03:06:15;18.57;;;13.20;;
13421;SDS011;6782;55.904;13.396;2022-10-30T03:09:03;24.90;;;14.07;;
13421;SDS011;6782;55.904;13.396;2022-10-30T03:11:51;19.83;;;13.10;;
13421;SDS011;6782;55.904;13.396;2022-10-30T03:14:38;19.20;;;12.77;;
13421;SDS011;6782;55.904;13.396;2022-10-30T03:17:25;17.30;;;12.90;;
13421;SDS011;6782;55.904;13.396;2022-10-30T03:20:12;19.80;;;12.17;;
13421;SDS011;6782;55.904;13.396;2022-10-30T03:22:59;16.50;;;12.73;;
13421;SDS011;6782;55.904;13.396;2022-10-30T03:25:46;23.70;;;12.90;;
13421;SDS011;6782;55.904;13.396;2022-10-30T03:28:35;20.33;;;12.83;;
13421;SDS011;6782;55.904;13.396;2022-10-30T03:31:22;18.70;;;13.57;;
13421;SDS011;6782;55.904;13.396;2022-10-30T03:34:09;20.00;;;13.90;;
13421;SDS011;6782;55.904;13.396;2022-10-30T03:36:56;24.97;;;14.43;;
13421;SDS011;6782;55.904;13.396;2022-10-30T03:39:43;26.33;;;18.13;;
13421;SDS011;6782;55.904;13.396;2022-10-30T03:42:30;25.40;;;16.30;;
13421;SDS011;6782;55.904;13.396;2022-10-30T03:45:19;28.23;;;17.33;;
13421;SDS011;6782;55.904;13.396;2022-10-30T03:48:06;29.67;;;17.43;;
13421;SDS011;6782;55.904;13.396;2022-10-30T03:50:53;30.13;;;18.37;;
13421;SDS011;6782;55.904;13.396;2022-10-30T03:53:41;28.13;;;17.23;;
13421;SDS011;6782;55.904;13.396;2022-10-30T03:56:28;26.73;;;17.87;;
13421;SDS011;6782;55.904;13.396;2022-10-30T03:59:16;21.83;;;14.93;;
13421;SDS011;6782;55.904;13.396;2022-10-30T04:02:04;31.93;;;17.13;;
13421;SDS011;6782;55.904;13.396;2022-10-30T04:04:51;20.47;;;15.00;;
13421;SDS011;6782;55.904;13.396;2022-10-30T04:07:38;27.43;;;16.80;;
13421;SDS011;6782;55.904;13.396;2022-10-30T04:10:25;27.50;;;16.80;;
13421;SDS011;6782;55.904;13.396;2022-10-30T04:13:14;27.23;;;16.47;;
13421;SDS011;6782;55.904;13.396;2022-10-30T04:16:02;26.70;;;16.63;;
13421;SDS011;6782;55.904;13.396;2022-10-30T04:18:52;31.50;;;17.33;;
13421;SDS011;6782;55.904;13.396;2022-10-30T04:21:39;28.37;;;15.90;;
13421;SDS011;6782;55.904;13.396;2022-10-30T04:24:28;27.23;;;16.77;;
13421;SDS011;6782;55.904;13.396;2022-10-30T04:27:15;28.43;;;17.10;;
13421;SDS011;6782;55.904;13.396;2022-10-30T04:30:02;28.50;;;18.10;;
13421;SDS011;6782;55.904;13.396;2022-10-30T04:32:50;32.30;;;18.43;;
13421;SDS011;6782;55.904;13.396;2022-10-30T04:35:41;33.70;;;19.20;;
13421;SDS011;6782;55.904;13.396;2022-10-30T04:38:28;29.57;;;17.87;;
13421;SDS011;6782;55.904;13.396;2022-10-30T04:41:15;25.53;;;16.50;;
13421;SDS011;6782;55.904;13.396;2022-10-30T04:44:02;24.40;;;15.27;;
13421;SDS011;6782;55.904;13.396;2022-10-30T04:46:50;27.07;;;17.03;;
13421;SDS011;6782;55.904;13.396;2022-10-30T04:49:37;40.77;;;21.90;;
13421;SDS011;6782;55.904;13.396;2022-10-30T04:52:25;31.10;;;19.27;;
13421;SDS011;6782;55.904;13.396;2022-10-30T04:55:12;31.67;;;19.53;;
13421;SDS011;6782;55.904;13.396;2022-10-30T04:57:59;31.07;;;19.60;;
13421;SDS011;6782;55.904;13.396;2022-10-30T05:00:47;29.90;;;18.37;;
13421;SDS011;6782;55.904;13.396;2022-10-30T05:03:34;36.23;;;20.50;;
13421;SDS011;6782;55.904;13.396;2022-10-30T05:06:22;37.27;;;22.03;;
13421;SDS011;6782;55.904;13.396;2022-10-30T05:09:13;28.80;;;18.23;;
13421;SDS011;6782;55.904;13.396;2022-10-30T05:12:00;37.07;;;20.93;;
13421;SDS011;6782;55.904;13.396;2022-10-30T05:14:47;35.70;;;20.77;;
13421;SDS011;6782;55.904;13.396;2022-10-30T05:17:34;37.43;;;22.70;;
13421;SDS011;6782;55.904;13.396;2022-10-30T05:20:21;38.13;;;21.70;;
13421;SDS011;6782;55.904;13.396;2022-10-30T05:23:08;45.60;;;23.93;;
13421;SDS011;6782;55.904;13.396;2022-10-30T05:25:58;40.10;;;22.20;;
13421;SDS011;6782;55.904;13.396;2022-10-30T05:28:45;36.17;;;22.57;;
13421;SDS011;6782;55.904;13.396;2022-10-30T05:31:33;36.30;;;21.43;;
13421;SDS011;6782;55.904;13.396;2022-10-30T05:34:20;39.40;;;22.53;;
13421;SDS011;6782;55.904;13.396;2022-10-30T05:37:07;42.77;;;23.97;;
13421;SDS011;6782;55.904;13.396;2022-10-30T05:39:54;42.10;;;23.80;;
13421;SDS011;6782;55.904;13.396;2022-10-30T05:42:45;33.20;;;21.10;;
13421;SDS011;6782;55.904;13.396;2022-10-30T05:45:32;41.13;;;23.77;;
13421;SDS011;6782;55.904;13.396;2022-10-30T05:48:19;38.53;;;21.83;;
13421;SDS011;6782;55.904;13.396;2022-10-30T05:51:06;41.43;;;23.43;;
13421;SDS011;6782;55.904;13.396;2022-10-30T05:53:53;45.47;;;24.53;;
13421;SDS011;6782;55.904;13.396;2022-10-30T05:56:40;43.83;;;23.03;;
13421;SDS011;6782;55.904;13.396;2022-10-30T05:59:29;45.40;;;23.80;;
13421;SDS011;6782;55.904;13.396;2022-10-30T06:02:16;47.87;;;24.07;;
13421;SDS011;6782;55.904;13.396;2022-10-30T06:05:03;41.37;;;23.90;;
13421;SDS011;6782;55.904;13.396;2022-10-30T06:07:53;48.83;;;24.20;;
13421;SDS011;6782;55.904;13.396;2022-10-30T06:10:40;52.23;;;26.10;;
13421;SDS011;6782;55.904;13.396;2022-10-30T06:13:27;39.60;;;22.43;;
13421;SDS011;6782;55.904;13.396;2022-10-30T06:16:15;41.00;;;25.07;;
13421;SDS011;6782;55.904;13.396;2022-10-30T06:19:02;42.10;;;22.73;;
13421;SDS011;6782;55.904;13.396;2022-10-30T06:21:49;41.57;;;24.20;;
13421;SDS011;6782;55.904;13.396;2022-10-30T06:24:39;50.40;;;26.23;;
13421;SDS011;6782;55.904;13.396;2022-10-30T06:27:26;46.63;;;25.77;;
13421;SDS011;6782;55.904;13.396;2022-10-30T06:30:13;48.30;;;25.63;;
13421;SDS011;6782;55.904;13.396;2022-10-30T06:33:02;44.60;;;24.83;;
13421;SDS011;6782;55.904;13.396;2022-10-30T06:35:50;49.53;;;24.77;;
13421;SDS011;6782;55.904;13.396;2022-10-30T06:38:37;47.43;;;26.60;;
13421;SDS011;6782;55.904;13.396;2022-10-30T06:41:24;44.47;;;24.67;;
13421;SDS011;6782;55.904;13.396;2022-10-30T06:44:12;48.90;;;25.03;;
13421;SDS011;6782;55.904;13.396;2022-10-30T06:46:59;43.17;;;22.77;;
13421;SDS011;6782;55.904;13.396;2022-10-30T06:49:48;42.53;;;24.03;;
13421;SDS011;6782;55.904;13.396;2022-10-30T06:52:35;26.37;;;17.50;;
13421;SDS011;6782;55.904;13.396;2022-10-30T06:55:22;41.57;;;23.13;;
13421;SDS011;6782;55.904;13.396;2022-10-30T06:58:09;44.80;;;26.70;;
13421;SDS011;6782;55.904;13.396;2022-10-30T07:00:58;38.53;;;23.97;;
13421;SDS011;6782;55.904;13.396;2022-10-30T07:03:45;40.30;;;25.07;;
13421;SDS011;6782;55.904;13.396;2022-10-30T07:06:34;38.97;;;24.17;;
13421;SDS011;6782;55.904;13.396;2022-10-30T07:09:21;40.63;;;21.87;;
13421;SDS011;6782;55.904;13.396;2022-10-30T07:12:08;36.60;;;20.70;;
13421;SDS011;6782;55.904;13.396;2022-10-30T07:14:55;28.10;;;18.60;;
13421;SDS011;6782;55.904;13.396;2022-10-30T07:17:42;35.97;;;21.73;;
13421;SDS011;6782;55.904;13.396;2022-10-30T07:20:30;31.23;;;19.50;;
13421;SDS011;6782;55.904;13.396;2022-10-30T07:23:19;33.10;;;20.00;;
13421;SDS011;6782;55.904;13.396;2022-10-30T07:26:07;26.27;;;17.47;;
13421;SDS011;6782;55.904;13.396;2022-10-30T07:28:54;30.70;;;18.20;;
13421;SDS011;6782;55.904;13.396;2022-10-30T07:31:41;25.37;;;18.13;;
13421;SDS011;6782;55.904;13.396;2022-10-30T07:34:29;29.70;;;18.97;;
13421;SDS011;6782;55.904;13.396;2022-10-30T07:37:16;19.20;;;13.47;;
13421;SDS011;6782;55.904;13.396;2022-10-30T07:40:05;23.73;;;15.70;;
13421;SDS011;6782;55.904;13.396;2022-10-30T07:42:56;19.03;;;15.27;;
13421;SDS011;6782;55.904;13.396;2022-10-30T07:45:44;21.83;;;14.83;;
13421;SDS011;6782;55.904;13.396;2022-10-30T07:48:31;22.27;;;16.63;;
13421;SDS011;6782;55.904;13.396;2022-10-30T07:51:18;22.70;;;16.00;;
13421;SDS011;6782;55.904;13.396;2022-10-30T07:54:05;26.33;;;16.20;;
13421;SDS011;6782;55.904;13.396;2022-10-30T07:56:53;22.80;;;14.03;;
13421;SDS011;6782;55.904;13.396;2022-10-30T07:59:41;18.97;;;12.73;;
13421;SDS011;6782;55.904;13.396;2022-10-30T08:02:29;20.03;;;13.00;;
13421;SDS011;6782;55.904;13.396;2022-10-30T08:05:16;18.10;;;12.03;;
13421;SDS011;6782;55.904;13.396;2022-10-30T08:08:04;20.10;;;13.60;;
13421;SDS011;6782;55.904;13.396;2022-10-30T08:10:51;18.17;;;11.97;;
13421;SDS011;6782;55.904;13.396;2022-10-30T08:13:40;16.83;;;11.80;;
13421;SDS011;6782;55.904;13.396;2022-10-30T08:16:28;16.97;;;11.77;;
13421;SDS011;6782;55.904;13.396;2022-10-30T08:19:15;16.70;;;11.60;;
13421;SDS011;6782;55.904;13.396;2022-10-30T08:22:02;17.17;;;12.13;;
13421;SDS011;6782;55.904;13.396;2022-10-30T08:24:49;17.47;;;11.57;;
13421;SDS011;6782;55.904;13.396;2022-10-30T08:27:36;15.37;;;11.60;;
13421;SDS011;6782;55.904;13.396;2022-10-30T08:30:26;17.40;;;12.50;;
13421;SDS011;6782;55.904;13.396;2022-10-30T08:33:14;17.75;;;13.70;;
13421;SDS011;6782;55.904;13.396;2022-10-30T08:36:01;14.90;;;11.83;;
13421;SDS011;6782;55.904;13.396;2022-10-30T08:38:48;17.05;;;11.75;;
13421;SDS011;6782;55.904;13.396;2022-10-30T08:41:35;16.63;;;11.87;;
13421;SDS011;6782;55.904;13.396;2022-10-30T08:44:22;15.80;;;11.10;;
13421;SDS011;6782;55.904;13.396;2022-10-30T08:47:10;12.90;;;10.70;;
13421;SDS011;6782;55.904;13.396;2022-10-30T08:49:57;17.97;;;12.07;;
13421;SDS011;6782;55.904;13.396;2022-10-30T08:52:44;15.40;;;12.47;;
13421;SDS011;6782;55.904;13.396;2022-10-30T08:55:32;15.87;;;12.00;;
13421;SDS011;6782;55.904;13.396;2022-10-30T08:58:19;15.17;;;12.40;;
13421;SDS011;6782;55.904;13.396;2022-10-30T09:01:06;15.20;;;12.90;;
13421;SDS011;6782;55.904;13.396;2022-10-30T09:03:55;17.23;;;13.00;;
13421;SDS011;6782;55.904;13.396;2022-10-30T09:06:42;17.37;;;13.87;;
13421;SDS011;6782;55.904;13.396;2022-10-30T09:09:29;14.73;;;12.30;;
13421;SDS011;6782;55.904;13.396;2022-10-30T09:12:16;15.47;;;12.10;;
13421;SDS011;6782;55.904;13.396;2022-10-30T09:15:03;17.30;;;11.40;;
13421;SDS011;6782;55.904;13.396;2022-10-30T09:17:54;13.83;;;11.67;;
13421;SDS011;6782;55.904;13.396;2022-10-30T09:20:43;16.70;;;11.47;;
13421;SDS011;6782;55.904;13.396;2022-10-30T09:23:30;12.07;;;10.70;;
13421;SDS011;6782;55.904;13.396;2022-10-30T09:26:18;12.63;;;10.13;;
13421;SDS011;6782;55.904;13.396;2022-10-30T09:29:05;14.37;;;9.77;;
13421;SDS011;6782;55.904;13.396;2022-10-30T09:31:52;13.20;;;9.90;;
13421;SDS011;6782;55.904;13.396;2022-10-30T09:34:40;15.03;;;9.23;;
13421;SDS011;6782;55.904;13.396;2022-10-30T09:37:28;11.77;;;9.27;;
13421;SDS011;6782;55.904;13.396;2022-10-30T09:40:21;11.00;;;9.03;;
13421;SDS011;6782;55.904;13.396;2022-10-30T09:43:16;10.50;;;8.60;;
13421;SDS011;6782;55.904;13.396;2022-10-30T09:46:15;10.20;;;8.60;;
13421;SDS011;6782;55.904;13.396;2022-10-30T09:49:17;11.80;;;8.17;;
13421;SDS011;6782;55.904;13.396;2022-10-30T09:52:21;8.48;;;7.32;;
13421;SDS011;6782;55.904;13.396;2022-10-30T09:55:21;9.70;;;8.00;;
13421;SDS011;6782;55.904;13.396;2022-10-30T09:58:20;7.93;;;6.73;;
13421;SDS011;6782;55.904;13.396;2022-10-30T10:01:15;8.80;;;6.33;;
13421;SDS011;6782;55.904;13.396;2022-10-30T10:04:14;6.65;;;5.90;;
13421;SDS011;6782;55.904;13.396;2022-10-30T10:07:14;7.07;;;5.60;;
13421;SDS011;6782;55.904;13.396;2022-10-30T10:10:08;6.97;;;5.50;;
13421;SDS011;6782;55.904;13.396;2022-10-30T10:13:01;6.03;;;5.00;;
13421;SDS011;6782;55.904;13.396;2022-10-30T10:15:50;6.53;;;4.43;;
13421;SDS011;6782;55.904;13.396;2022-10-30T10:18:42;5.30;;;3.93;;
13421;SDS011;6782;55.904;13.396;2022-10-30T10:21:31;5.40;;;4.13;;
13421;SDS011;6782;55.904;13.396;2022-10-30T10:24:26;4.57;;;4.18;;
13421;SDS011;6782;55.904;13.396;2022-10-30T10:27:19;4.23;;;3.80;;
13421;SDS011;6782;55.904;13.396;2022-10-30T10:30:17;4.77;;;3.97;;
13421;SDS011;6782;55.904;13.396;2022-10-30T10:33:14;6.10;;;3.77;;
13421;SDS011;6782;55.904;13.396;2022-10-30T10:36:22;5.07;;;3.40;;
13421;SDS011;6782;55.904;13.396;2022-10-30T10:39:20;4.00;;;3.60;;
13421;SDS011;6782;55.904;13.396;2022-10-30T10:42:18;4.53;;;3.70;;
13421;SDS011;6782;55.904;13.396;2022-10-30T10:45:19;4.23;;;3.77;;
13421;SDS011;6782;55.904;13.396;2022-10-30T10:48:20;5.25;;;3.35;;
13421;SDS011;6782;55.904;13.396;2022-10-30T10:51:17;5.00;;;3.57;;
13421;SDS011;6782;55.904;13.396;2022-10-30T10:54:09;3.67;;;3.37;;
13421;SDS011;6782;55.904;13.396;2022-10-30T10:56:59;3.95;;;3.15;;
13421;SDS011;6782;55.904;13.396;2022-10-30T10:59:51;4.78;;;3.03;;
13421;SDS011;6782;55.904;13.396;2022-10-30T11:02:45;2.97;;;2.70;;
13421;SDS011;6782;55.904;13.396;2022-10-30T11:05:38;4.15;;;2.50;;
13421;SDS011;6782;55.904;13.396;2022-10-30T11:08:30;3.10;;;2.30;;
13421;SDS011;6782;55.904;13.396;2022-10-30T11:11:19;3.38;;;2.25;;
13421;SDS011;6782;55.904;13.396;2022-10-30T11:14:09;2.40;;;2.00;;
13421;SDS011;6782;55.904;13.396;2022-10-30T11:17:01;3.05;;;1.77;;
13421;SDS011;6782;55.904;13.396;2022-10-30T11:19:59;4.03;;;2.13;;
13421;SDS011;6782;55.904;13.396;2022-10-30T11:22:48;2.50;;;1.80;;
13421;SDS011;6782;55.904;13.396;2022-10-30T11:25:36;3.38;;;2.00;;
13421;SDS011;6782;55.904;13.396;2022-10-30T11:28:30;3.35;;;1.95;;
13421;SDS011;6782;55.904;13.396;2022-10-30T11:31:22;1.75;;;1.60;;
13421;SDS011;6782;55.904;13.396;2022-10-30T11:34:24;5.03;;;1.80;;
13421;SDS011;6782;55.904;13.396;2022-10-30T11:37:29;2.08;;;1.35;;
13421;SDS011;6782;55.904;13.396;2022-10-30T11:40:18;2.40;;;1.92;;
13421;SDS011;6782;55.904;13.396;2022-10-30T11:43:07;1.98;;;1.55;;
13421;SDS011;6782;55.904;13.396;2022-10-30T11:45:58;2.65;;;1.75;;
13421;SDS011;6782;55.904;13.396;2022-10-30T11:48:46;2.00;;;1.45;;
13421;SDS011;6782;55.904;13.396;2022-10-30T11:51:39;2.60;;;1.63;;
13421;SDS011;6782;55.904;13.396;2022-10-30T11:54:33;3.75;;;2.00;;
13421;SDS011;6782;55.904;13.396;2022-10-30T11:57:23;2.25;;;2.05;;
13421;SDS011;6782;55.904;13.396;2022-10-30T12:00:19;3.30;;;1.67;;
13421;SDS011;6782;55.904;13.396;2022-10-30T12:03:24;2.75;;;1.75;;
13421;SDS011;6782;55.904;13.396;2022-10-30T12:06:17;4.78;;;1.80;;
13421;SDS011;6782;55.904;13.396;2022-10-30T12:09:09;3.53;;;1.90;;
13421;SDS011;6782;55.904;13.396;2022-10-30T12:11:59;3.65;;;2.05;;
13421;SDS011;6782;55.904;13.396;2022-10-30T12:15:07;2.60;;;1.80;;
13421;SDS011;6782;55.904;13.396;2022-10-30T12:17:57;3.53;;;1.90;;
13421;SDS011;6782;55.904;13.396;2022-10-30T12:20:47;3.58;;;2.45;;
13421;SDS011;6782;55.904;13.396;2022-10-30T12:23:38;3.92;;;3.00;;
13421;SDS011;6782;55.904;13.396;2022-10-30T12:26:25;4.70;;;3.03;;
13421;SDS011;6782;55.904;13.396;2022-10-30T12:29:16;3.55;;;2.72;;
13421;SDS011;6782;55.904;13.396;2022-10-30T12:32:06;2.78;;;2.53;;
13421;SDS011;6782;55.904;13.396;2022-10-30T12:35:01;5.78;;;2.63;;
13421;SDS011;6782;55.904;13.396;2022-10-30T12:37:55;4.00;;;3.33;;
13421;SDS011;6782;55.904;13.396;2022-10-30T12:40:50;3.83;;;2.90;;
13421;SDS011;6782;55.904;13.396;2022-10-30T12:43:47;5.80;;;3.28;;
13421;SDS011;6782;55.904;13.396;2022-10-30T12:46:43;4.60;;;2.90;;
13421;SDS011;6782;55.904;13.396;2022-10-30T12:49:38;4.05;;;2.97;;
13421;SDS011;6782;55.904;13.396;2022-10-30T12:52:28;3.95;;;2.70;;
13421;SDS011;6782;55.904;13.396;2022-10-30T12:55:21;3.63;;;2.60;;
13421;SDS011;6782;55.904;13.396;2022-10-30T12:58:14;3.75;;;2.58;;
13421;SDS011;6782;55.904;13.396;2022-10-30T13:01:09;2.78;;;2.25;;
13421;SDS011;6782;55.904;13.396;2022-10-30T13:04:07;3.72;;;2.70;;
13421;SDS011;6782;55.904;13.396;2022-10-30T13:07:04;4.47;;;2.55;;
13421;SDS011;6782;55.904;13.396;2022-10-30T13:10:04;5.20;;;2.50;;
13421;SDS011;6782;55.904;13.396;2022-10-30T13:13:03;6.03;;;2.75;;
13421;SDS011;6782;55.904;13.396;2022-10-30T13:15:56;4.88;;;2.67;;
13421;SDS011;6782;55.904;13.396;2022-10-30T13:18:44;3.50;;;2.72;;
13421;SDS011;6782;55.904;13.396;2022-10-30T13:21:34;6.43;;;2.95;;
13421;SDS011;6782;55.904;13.396;2022-10-30T13:24:32;5.25;;;3.00;;
13421;SDS011;6782;55.904;13.396;2022-10-30T13:27:32;3.25;;;2.50;;
13421;SDS011;6782;55.904;13.396;2022-10-30T13:30:27;4.30;;;2.33;;
13421;SDS011;6782;55.904;13.396;2022-10-30T13:33:21;5.07;;;2.78;;
13421;SDS011;6782;55.904;13.396;2022-10-30T13:36:16;4.13;;;2.65;;
13421;SDS011;6782;55.904;13.396;2022-10-30T13:39:20;5.90;;;2.70;;
13421;SDS011;6782;55.904;13.396;2022-10-30T13:42:17;4.20;;;2.38;;
13421;SDS011;6782;55.904;13.396;2022-10-30T13:45:18;3.90;;;2.20;;
13421;SDS011;6782;55.904;13.396;2022-10-30T13:48:17;5.38;;;2.75;;
13421;SDS011;6782;55.904;13.396;2022-10-30T13:51:19;6.47;;;2.67;;
13421;SDS011;6782;55.904;13.396;2022-10-30T13:54:17;3.17;;;2.50;;
13421;SDS011;6782;55.904;13.396;2022-10-30T13:57:11;3.38;;;2.47;;
13421;SDS011;6782;55.904;13.396;2022-10-30T14:00:04;5.00;;;2.70;;
13421;SDS011;6782;55.904;13.396;2022-10-30T14:03:04;5.00;;;2.70;;
13421;SDS011;6782;55.904;13.396;2022-10-30T14:06:01;4.30;;;3.00;;
13421;SDS011;6782;55.904;13.396;2022-10-30T14:09:00;4.05;;;2.78;;
13421;SDS011;6782;55.904;13.396;2022-10-30T14:11:58;5.75;;;2.80;;
13421;SDS011;6782;55.904;13.396;2022-10-30T14:14:47;4.95;;;2.83;;
13421;SDS011;6782;55.904;13.396;2022-10-30T14:17:34;4.65;;;2.97;;
13421;SDS011;6782;55.904;13.396;2022-10-30T14:20:25;5.80;;;2.80;;
13421;SDS011;6782;55.904;13.396;2022-10-30T14:23:14;4.25;;;2.90;;
13421;SDS011;6782;55.904;13.396;2022-10-30T14:26:12;4.93;;;3.08;;
13421;SDS011;6782;55.904;13.396;2022-10-30T14:32:38;4.40;;;3.08;;
13421;SDS011;6782;55.904;13.396;2022-10-30T14:35:34;4.80;;;3.10;;
13421;SDS011;6782;55.904;13.396;2022-10-30T14:38:24;7.20;;;3.33;;
13421;SDS011;6782;55.904;13.396;2022-10-30T14:41:24;5.53;;;3.33;;
13421;SDS011;6782;55.904;13.396;2022-10-30T14:44:22;5.82;;;2.97;;
13421;SDS011;6782;55.904;13.396;2022-10-30T14:47:35;4.30;;;2.97;;
13421;SDS011;6782;55.904;13.396;2022-10-30T14:50:32;5.10;;;3.42;;
13421;SDS011;6782;55.904;13.396;2022-10-30T14:53:43;7.03;;;3.90;;
13421;SDS011;6782;55.904;13.396;2022-10-30T14:56:40;8.02;;;3.72;;
13421;SDS011;6782;55.904;13.396;2022-10-30T14:59:32;7.22;;;4.00;;
13421;SDS011;6782;55.904;13.396;2022-10-30T15:02:31;5.22;;;4.00;;
13421;SDS011;6782;55.904;13.396;2022-10-30T15:05:36;5.95;;;3.95;;
13421;SDS011;6782;55.904;13.396;2022-10-30T15:11:55;7.07;;;4.38;;
13421;SDS011;6782;55.904;13.396;2022-10-30T15:14:52;8.88;;;5.88;;
13421;SDS011;6782;55.904;13.396;2022-10-30T15:17:45;13.30;;;7.88;;
13421;SDS011;6782;55.904;13.396;2022-10-30T15:20:34;12.32;;;8.20;;
13421;SDS011;6782;55.904;13.396;2022-10-30T15:23:26;10.52;;;8.07;;
13421;SDS011;6782;55.904;13.396;2022-10-30T15:26:17;19.27;;;10.50;;
13421;SDS011;6782;55.904;13.396;2022-10-30T15:29:10;18.95;;;12.18;;
13421;SDS011;6782;55.904;13.396;2022-10-30T15:32:12;20.85;;;13.38;;
13421;SDS011;6782;55.904;13.396;2022-10-30T15:35:03;26.60;;;15.95;;
13421;SDS011;6782;55.904;13.396;2022-10-30T15:38:02;25.90;;;15.55;;
13421;SDS011;6782;55.904;13.396;2022-10-30T15:40:54;23.23;;;13.80;;
13421;SDS011;6782;55.904;13.396;2022-10-30T15:43:43;20.48;;;12.85;;
13421;SDS011;6782;55.904;13.396;2022-10-30T15:46:31;29.90;;;16.05;;
13421;SDS011;6782;55.904;13.396;2022-10-30T15:49:20;28.83;;;16.10;;
13421;SDS011;6782;55.904;13.396;2022-10-30T15:52:18;22.73;;;14.13;;
13421;SDS011;6782;55.904;13.396;2022-10-30T15:55:10;30.75;;;18.73;;
13421;SDS011;6782;55.904;13.396;2022-10-30T15:58:01;25.88;;;18.33;;
13421;SDS011;6782;55.904;13.396;2022-10-30T16:00:54;32.22;;;19.38;;
13421;SDS011;6782;55.904;13.396;2022-10-30T16:03:42;31.95;;;19.27;;
13421;SDS011;6782;55.904;13.396;2022-10-30T16:06:38;35.08;;;21.02;;
13421;SDS011;6782;55.904;13.396;2022-10-30T16:09:27;30.13;;;21.23;;
13421;SDS011;6782;55.904;13.396;2022-10-30T16:12:14;32.95;;;21.52;;
13421;SDS011;6782;55.904;13.396;2022-10-30T16:15:04;34.28;;;20.73;;
13421;SDS011;6782;55.904;13.396;2022-10-30T16:18:03;33.63;;;20.75;;
13421;SDS011;6782;55.904;13.396;2022-10-30T16:20:54;38.22;;;22.75;;
13421;SDS011;6782;55.904;13.396;2022-10-30T16:23:45;38.90;;;24.08;;
13421;SDS011;6782;55.904;13.396;2022-10-30T16:26:36;37.50;;;25.33;;
13421;SDS011;6782;55.904;13.396;2022-10-30T16:29:25;35.42;;;24.33;;
13421;SDS011;6782;55.904;13.396;2022-10-30T16:32:13;38.13;;;24.38;;
13421;SDS011;6782;55.904;13.396;2022-10-30T16:35:02;35.03;;;24.73;;
13421;SDS011;6782;55.904;13.396;2022-10-30T16:37:50;39.40;;;26.48;;
13421;SDS011;6782;55.904;13.396;2022-10-30T16:40:38;37.80;;;26.52;;
13421;SDS011;6782;55.904;13.396;2022-10-30T16:43:28;40.45;;;26.85;;
13421;SDS011;6782;55.904;13.396;2022-10-30T16:49:32;32.83;;;22.85;;
13421;SDS011;6782;55.904;13.396;2022-10-30T16:52:23;35.17;;;24.98;;
13421;SDS011;6782;55.904;13.396;2022-10-30T16:55:14;42.67;;;26.50;;
13421;SDS011;6782;55.904;13.396;2022-10-30T16:58:04;40.65;;;27.58;;
13421;SDS011;6782;55.904;13.396;2022-10-30T17:00:54;38.33;;;25.50;;